Flight Track Log - Related Links

Times and Time Zones

All times are in EDT time to prevent confusion due to time zone crossing. See the N555FW flight status page for this flight to view local times or setup timezone preferences in your user account.


Time Position Orientation Groundspeed Altitude Reporting Facility
EDT Latitude Longitude Course Direction KTS MPH feet Rate Location/Type
Fri 02:41:23 PM 31.8006 -106.3583 87° East 131 151 4,400  Level Albuquerque Center
Fri 02:42:48 PM 31.8042 -106.2847 87° East 164 189 6,800 1,697 Climbing Albuquerque Center
Fri 02:43:48 PM 31.8103 -106.2358 82° East 153 176 8,500 1,531 Climbing Albuquerque Center
Fri 02:45:13 PM 31.8203 -106.1731 79° East 146 168 10,500 1,469 Climbing Albuquerque Center
Fri 02:46:15 PM 31.8275 -106.1247 80° East 149 171 12,100 1,452 Climbing Albuquerque Center
Fri 02:47:17 PM 31.8342 -106.0767 81° East 150 173 13,500 1,452 Climbing Albuquerque Center
Fri 02:48:19 PM 31.8433 -106.0169 80° East 154 177 15,100 1,415 Climbing Albuquerque Center
Fri 02:49:20 PM 31.8514 -105.9664 79° East 157 181 16,400 1,122 Climbing Albuquerque Center
Fri 02:50:22 PM 31.8583 -105.9131 81° East 165 190 17,400 1,016 Climbing Albuquerque Center
Fri 02:51:24 PM 31.8669 -105.8578 80° East 170 196 18,500 968 Climbing Albuquerque Center
Fri 02:52:26 PM 31.8744 -105.8019 81° East 173 199 19,400 968 Climbing Albuquerque Center
Fri 02:53:28 PM 31.8831 -105.7433 80° East 180 207 20,500 1,065 Climbing Albuquerque Center
Fri 02:54:30 PM 31.8942 -105.6719 80° East 185 213 21,600 1,016 Climbing Albuquerque Center
Fri 02:55:32 PM 31.9025 -105.6133 80° East 183 211 22,600 677 Climbing Albuquerque Center
Fri 02:56:34 PM 31.9111 -105.5528 80° East 189 217 23,000 194 Climbing Albuquerque Center
Fri 02:57:36 PM 31.9206 -105.4822 81° East 218 251 23,000  Level Albuquerque Center
Fri 02:58:38 PM 31.9319 -105.4069 80° East 233 268 23,000  Level Albuquerque Center
Fri 02:59:40 PM 31.9431 -105.3289 80° East 242 278 23,000  Level Albuquerque Center
Fri 03:00:42 PM 31.9553 -105.2503 80° East 244 281 23,000  Level Albuquerque Center
Fri 03:01:44 PM 31.9689 -105.1550 80° East 245 282 23,000  Level Albuquerque Center
Fri 03:02:45 PM 31.9797 -105.0750 81° East 246 283 23,000  Level Albuquerque Center
Fri 03:03:47 PM 31.9908 -104.9983 80° East 242 278 23,000  Level Albuquerque Center
Fri 03:04:49 PM 32.0011 -104.9225 81° East 237 273 23,000  Level Albuquerque Center
Fri 03:05:51 PM 32.0125 -104.8461 80° East 237 273 23,000  Level Albuquerque Center
Fri 03:06:53 PM 32.0233 -104.7697 80° East 236 272 23,000  Level Albuquerque Center
Fri 03:07:55 PM 32.0333 -104.6919 81° East 239 275 23,000  Level Albuquerque Center
Fri 03:08:57 PM 32.0461 -104.5969 81° East 243 280 23,000  Level Albuquerque Center
Fri 03:09:58 PM 32.0572 -104.5203 80° East 240 276 23,000  Level Albuquerque Center
Fri 03:11:00 PM 32.0681 -104.4417 81° East 241 277 23,000  Level Albuquerque Center
Fri 03:12:02 PM 32.0783 -104.3650 81° East 238 274 23,000  Level Albuquerque Center
Fri 03:13:04 PM 32.0881 -104.2878 82° East 239 275 23,000  Level Albuquerque Center
Fri 03:14:06 PM 32.0992 -104.2103 80° East 239 275 23,000  Level Albuquerque Center
Fri 03:15:08 PM 32.1081 -104.1328 82° East 240 276 23,000  Level Albuquerque Center
Fri 03:16:10 PM 32.1214 -104.0472 80° East 236 272 23,000  Level Albuquerque Center
Fri 03:17:12 PM 32.1300 -103.9700 82° East 237 273 23,000  Level Albuquerque Center
Fri 03:18:13 PM 32.1403 -103.8933 81° East 238 274 23,000  Level Albuquerque Center
Fri 03:19:15 PM 32.1494 -103.8164 82° East 238 274 23,000  Level Albuquerque Center
Fri 03:20:17 PM 32.1544 -103.7247 86° East 235 270 23,000  Level Albuquerque Center
Fri 03:21:19 PM 32.1592 -103.6486 86° East 233 268 23,000  Level Albuquerque Center
Fri 03:22:21 PM 32.1611 -103.5700 88° East 238 274 23,000  Level Albuquerque Center
Fri 03:23:23 PM 32.1636 -103.4942 88° East 234 269 23,000  Level Albuquerque Center
Fri 03:24:24 PM 32.1661 -103.4175 88° East 234 269 23,000  Level Albuquerque Center
Fri 03:25:26 PM 32.1692 -103.3408 87° East 235 270 23,000  Level Albuquerque Center
Fri 03:26:28 PM 32.1717 -103.2492 88° East 234 269 23,000  Level Albuquerque Center
Fri 03:27:30 PM 32.1733 -103.1725 89° East 234 269 23,000  Level Albuquerque Center
Fri 03:28:31 PM 32.1764 -103.0964 87° East 234 269 23,000  Level Albuquerque Center
Fri 03:30:07 PM 32.1800 -102.9700 88° East 233 268 23,000  Level Fort Worth Center
Fri 03:31:07 PM 32.1833 -102.8967 87° East 233 268 23,000  Level Fort Worth Center
Fri 03:32:07 PM 32.1844 -102.8206 89° East 233 268 23,000  Level Fort Worth Center
Fri 03:33:07 PM 32.1856 -102.7469 89° East 233 268 23,000  Level Fort Worth Center
Fri 03:34:07 PM 32.1886 -102.6783 87° East 233 268 23,000  Level Fort Worth Center
Fri 03:35:07 PM 32.1894 -102.6025 89° East 233 268 23,000  Level Fort Worth Center
Fri 03:36:07 PM 32.1906 -102.5264 89° East 233 268 23,000  Level Fort Worth Center
Fri 03:37:07 PM 32.1936 -102.4531 87° East 233 268 23,000  Level Fort Worth Center
Fri 03:38:07 PM 32.1939 -102.3892 90° East 233 268 23,000  Level Fort Worth Center
Fri 03:39:07 PM 32.1975 -102.2986 87° East 233 268 23,000  Level Fort Worth Center
Fri 03:40:07 PM 32.2006 -102.2250 87° East 233 268 23,000  Level Fort Worth Center
Fri 03:41:07 PM 32.2011 -102.1492 89° East 233 268 23,000  Level Fort Worth Center
Fri 03:42:07 PM 32.2042 -102.0731 87° East 233 268 23,000  Level Fort Worth Center
Fri 03:43:07 PM 32.2047 -101.9994 89° East 233 268 23,000  Level Fort Worth Center
Fri 03:44:07 PM 32.2072 -101.9258 88° East 233 268 23,000  Level Fort Worth Center
Fri 03:45:07 PM 32.2081 -101.8500 89° East 233 268 23,000  Level Fort Worth Center
Fri 03:46:07 PM 32.2106 -101.7739 88° East 233 268 23,000  Level Fort Worth Center
Fri 03:47:07 PM 32.2092 -101.6978 91° East 233 268 23,000  Level Fort Worth Center
Fri 03:48:07 PM 32.2117 -101.6242 88° East 233 268 23,000  Level Fort Worth Center
Fri 03:49:07 PM 32.2139 -101.5506 88° East 233 268 23,000  Level Fort Worth Center
Fri 03:50:07 PM 32.2164 -101.4747 88° East 228 262 23,000  Level Fort Worth Center
Fri 03:51:07 PM 32.2147 -101.4033 92° East 228 262 23,000  Level Fort Worth Center
Fri 03:52:07 PM 32.2169 -101.3275 88° East 228 262 23,000  Level Fort Worth Center
Fri 03:53:07 PM 32.2214 -101.2539 86° East 228 262 23,000  Level Fort Worth Center
Fri 03:54:07 PM 32.2297 -101.1806 82° East 228 262 23,000 -300 Level Fort Worth Center
Fri 03:55:07 PM 32.2342 -101.1072 86° East 228 262 22,400 -900 Descending Fort Worth Center
Fri 03:56:07 PM 32.2408 -101.0189 85° East 240 276 21,200 -1,150 Descending Fort Worth Center
Fri 03:57:07 PM 32.2497 -100.9308 83° East 259 298 20,100 -1,050 Descending Fort Worth Center
Fri 03:58:07 PM 32.2583 -100.8403 84° East 264 304 19,100 -550 Descending Fort Worth Center
Fri 03:59:07 PM 32.2628 -100.7544 86° East 269 310 19,000 -50 Descending Fort Worth Center
Fri 04:00:07 PM 32.2711 -100.6761 83° East 256 295 19,000  Level Fort Worth Center
Fri 04:01:07 PM 32.2753 -100.5978 86° East 244 281 19,000  Level Fort Worth Center
Fri 04:02:07 PM 32.2814 -100.5194 85° East 238 274 19,000  Level Fort Worth Center
Fri 04:03:07 PM 32.2872 -100.4433 85° East 232 267 19,000  Level Fort Worth Center
Fri 04:04:07 PM 32.2933 -100.3625 85° East 232 267 19,000  Level Fort Worth Center
Fri 04:05:07 PM 32.2994 -100.2864 85° East 232 267 19,000  Level Fort Worth Center
Fri 04:06:07 PM 32.3053 -100.2056 85° East 237 273 19,000  Level Fort Worth Center
Fri 04:07:19 PM 32.3117 -100.1125 85° East 237 273 19,000  Level Fort Worth Center
Fri 04:08:19 PM 32.3175 -100.0364 85° East 237 273 19,000  Level Fort Worth Center
Fri 04:09:19 PM 32.3233 -99.9553 85° East 237 273 19,000  Level Fort Worth Center
Fri 04:10:20 PM 32.3289 -99.8794 85° East 237 273 19,000  Level Fort Worth Center
Fri 04:11:19 PM 32.3347 -99.7983 85° East 237 273 19,000  Level Fort Worth Center
Fri 04:13:19 PM 32.3458 -99.6436 85° East 237 273 19,000  Level Fort Worth Center
Fri 04:14:19 PM 32.3514 -99.5653 85° East 237 273 19,000  Level Fort Worth Center
Fri 04:15:19 PM 32.3567 -99.4964 85° East 237 273 19,000  Level Fort Worth Center
Fri 04:16:19 PM 32.3625 -99.4031 86° East 237 273 19,000  Level Fort Worth Center
Fri 04:17:19 PM 32.3678 -99.3269 85° East 237 273 19,000  Level Fort Worth Center
Fri 04:18:19 PM 32.3731 -99.2483 85° East 237 273 19,000  Level Fort Worth Center
Fri 04:19:19 PM 32.3783 -99.1697 85° East 237 273 19,000  Level Fort Worth Center
Fri 04:20:19 PM 32.3836 -99.0936 85° East 237 273 19,000  Level Fort Worth Center
Fri 04:21:19 PM 32.3889 -99.0150 85° East 237 273 19,000 -50 Level Fort Worth Center
Fri 04:22:19 PM 32.3961 -98.9439 83° East 237 273 18,900 -450 Descending Fort Worth Center
Fri 04:23:19 PM 32.3989 -98.8700 87° East 237 273 18,100 -850 Descending Fort Worth Center
Fri 04:24:19 PM 32.4042 -98.7742 86° East 253 291 17,200 -1,000 Descending Fort Worth Center
Fri 04:25:19 PM 32.4114 -98.6783 85° East 258 297 16,100 -1,050 Descending Fort Worth Center
Fri 04:26:19 PM 32.4208 -98.5897 83° East 258 297 15,100 -1,000 Descending Fort Worth Center
Fri 04:27:19 PM 32.4236 -98.5011 88° East 264 304 14,100 -1,100 Descending Fort Worth Center
Fri 04:28:19 PM 32.4286 -98.4053 86° East 279 321 12,900 -1,050 Descending Fort Worth Center
Fri 04:29:19 PM 32.4356 -98.3192 85° East 273 314 12,000 -1,000 Descending Fort Worth Center
Fri 04:30:19 PM 32.4403 -98.2306 86° East 273 314 10,900 -1,000 Descending Fort Worth Center
Fri 04:31:19 PM 32.4450 -98.1419 86° East 273 314 10,000 -1,050 Descending Fort Worth Center
Fri 04:32:19 PM 32.4517 -98.0536 85° East 273 314 8,800 -1,150 Descending Fort Worth Center
Fri 04:33:19 PM 32.4542 -97.9650 88° East 273 314 7,700 -1,190 Descending Fort Worth Center
Fri 04:34:20 PM 32.4608 -97.8764 85° East 273 314 6,400 -1,200 Descending Fort Worth Center
Fri 04:35:19 PM 32.4653 -97.7925 86° East 268 308 5,300 -655 Descending Fort Worth Center
Fri 04:36:19 PM 32.4739 -97.7211 82° East 256 295 5,100 -100 Descending Fort Worth Center
Fri 04:37:19 PM 32.5219 -97.6597 47° Northeast 222 255 5,100  Level Fort Worth Center
Fri 04:38:19 PM 32.5619 -97.6081 47° Northeast 216 249 5,100 -300 Level Fort Worth Center
Fri 04:39:19 PM 32.6017 -97.5514 50° Northeast 216 249 4,500 -500 Descending Fort Worth Center
Fri 04:40:19 PM 32.6497 -97.5047 39° Northeast 216 249 4,100 -400 Descending Fort Worth Center
Fri 04:41:19 PM 32.6894 -97.4628 42° Northeast 210 242 3,700 -800 Descending Fort Worth Center
Fri 04:42:19 PM 32.7331 -97.4133 44° Northeast 205 236 2,500 -950 Descending Fort Worth Center
Fri 04:43:19 PM 32.7603 -97.3739 51° Northeast 182 209 1,800 -600 Descending Fort Worth Center
Fri 04:44:19 PM 32.7958 -97.3417 37° Northeast 147 169 1,300 1,600 Descending Fort Worth Center
Fri 04:45:19 PM 32.7769 -97.4133 253° West 99 114 5,000 1,850 Climbing Fort Worth Center
Fri 04:46:19 PM 32.7769 -97.4108 90° East 57 66 5,000  Level Fort Worth Center
Fri 04:47:19 PM 32.7769 -97.4133 270° West 45 52 5,000  Level Fort Worth Center
Fri 04:48:19 PM 32.7769 -97.4133 328° Northwest 10 12 5,000  Level Fort Worth Center

Login

Don't have an account? Register now (free) for customized features, flight alerts, and more!